Terminal Aerodrome Forecast
Issued by NWS Upton, NY

Current Version | Previous Version | Text Only | Print | Product List | Glossary On
Versions: 1 2 3 4 5 6 7 8 9 10 11 12 13 14 15 16 17 18 19 20 21 22 23 24 25 26 27
000
FTUS41 KOKX 242300
TAFISP
TAF
KISP 242332Z 2500/2524 21014G24KT P6SM SCT008 SCT050 SCT100
      WS016/25050KT
     FM250500 23010KT P6SM BKN040 BKN250 WS016/25050KT
     FM250800 24007KT P6SM BKN040 BKN250
     FM251400 27010G18KT P6SM BKN250
     FM252300 VRB05KT P6SM OVC250=

USA.gov is the U.S. government's official web portal to all federal, state and local government web resources and services.